Time;durP1;ratioP1;P1;durP2;ratioP2;P2;SDS_P1;SDS_P2;PMS_P1;PMS_P2;Temp;Humidity;BMP_temperature;BMP_pressure;BME280_temperature;BME280_humidity;BME280_pressure;Samples;Min_cycle;Max_cycle;Signal;HPM_P1;HPM_P2
2023/10/21 00:01:05;;;;;;;2.75;1.50;;;17.50;99.90;;;;;;5063538;28;20203;-75
2023/10/21 00:03:32;;;;;;;2.92;1.35;;;17.50;99.90;;;;;;5061010;28;20255;-73
2023/10/21 00:05:59;;;;;;;1.80;1.42;;;17.40;99.90;;;;;;5064672;28;20197;-74
2023/10/21 00:08:26;;;;;;;2.80;1.63;;;17.40;99.90;;;;;;5063178;28;20279;-75
2023/10/21 00:11:03;;;;;;;3.92;1.50;;;17.60;99.90;;;;;;5063527;28;20206;-75
2023/10/21 00:13:30;;;;;;;3.85;1.33;;;17.60;99.90;;;;;;5063272;28;20210;-74
2023/10/21 00:15:57;;;;;;;4.68;1.40;;;17.50;99.90;;;;;;5064980;28;22493;-75
2023/10/21 00:18:26;;;;;;;4.25;1.60;;;17.50;99.90;;;;;;5064313;28;20230;-74
2023/10/21 00:20:54;;;;;;;3.53;1.50;;;17.50;99.90;;;;;;5062959;28;21077;-75
2023/10/21 00:23:22;;;;;;;3.10;1.40;;;17.50;99.90;;;;;;5065250;28;20285;-75
2023/10/21 00:25:49;;;;;;;3.05;1.40;;;17.50;99.90;;;;;;5062945;28;20285;-76
2023/10/21 00:28:17;;;;;;;2.95;1.30;;;17.50;99.90;;;;;;5064852;28;20221;-75
2023/10/21 00:30:45;;;;;;;2.45;1.23;;;17.50;99.90;;;;;;5061584;28;20225;-76
2023/10/21 00:33:14;;;;;;;3.63;1.50;;;17.50;99.90;;;;;;5065601;28;20863;-75
2023/10/21 00:35:43;;;;;;;1.10;1.00;;;17.40;99.90;;;;;;5065078;28;20194;-75
2023/10/21 00:38:10;;;;;;;2.55;1.10;;;17.30;99.90;;;;;;5063873;28;20237;-75
2023/10/21 00:40:37;;;;;;;1.80;1.23;;;17.20;99.90;;;;;;5063048;28;20664;-75
2023/10/21 00:43:04;;;;;;;1.70;1.02;;;17.20;99.90;;;;;;5066229;28;20202;-74
2023/10/21 00:45:33;;;;;;;2.45;1.40;;;17.20;99.90;;;;;;5065161;28;20203;-76
2023/10/21 00:48:00;;;;;;;1.67;1.20;;;17.30;99.90;;;;;;5063852;28;20222;-75
2023/10/21 00:50:26;;;;;;;1.48;1.20;;;17.20;99.90;;;;;;5065003;28;20631;-75
2023/10/21 00:52:54;;;;;;;2.40;1.10;;;17.20;99.90;;;;;;5064226;28;20218;-75
2023/10/21 00:55:21;;;;;;;2.92;1.48;;;17.20;99.90;;;;;;5066146;28;20733;-75
2023/10/21 00:57:48;;;;;;;1.33;1.00;;;17.10;99.90;;;;;;5059918;28;20223;-76
2023/10/21 01:00:16;;;;;;;3.22;1.10;;;17.20;99.90;;;;;;5064588;28;20198;-76
2023/10/21 01:02:47;;;;;;;2.03;1.35;;;17.10;99.90;;;;;;5064254;28;20195;-74
2023/10/21 01:05:15;;;;;;;1.13;0.90;;;17.20;99.90;;;;;;5065701;28;20785;-75
2023/10/21 01:07:44;;;;;;;2.72;1.15;;;17.20;99.90;;;;;;5060861;28;20222;-74
2023/10/21 01:10:12;;;;;;;1.40;1.00;;;17.30;99.90;;;;;;5064122;28;20301;-75
2023/10/21 01:12:39;;;;;;;3.40;1.42;;;17.30;99.90;;;;;;5064726;28;20210;-75
2023/10/21 01:15:08;;;;;;;2.28;1.20;;;17.30;99.90;;;;;;5064744;28;20284;-75
2023/10/21 01:17:35;;;;;;;2.55;1.00;;;17.10;99.90;;;;;;5064557;28;20210;-77
2023/10/21 01:20:06;;;;;;;1.85;1.10;;;17.10;99.90;;;;;;5062255;28;20210;-75
2023/10/21 01:22:33;;;;;;;2.22;1.05;;;16.90;99.90;;;;;;5064800;28;20202;-75
2023/10/21 01:25:02;;;;;;;1.75;1.17;;;16.80;99.90;;;;;;5064324;28;20252;-75
2023/10/21 01:27:29;;;;;;;2.70;1.30;;;16.70;99.90;;;;;;5064549;28;20801;-76
2023/10/21 01:29:56;;;;;;;2.53;1.50;;;16.60;99.90;;;;;;5062171;28;20203;-75
2023/10/21 01:32:24;;;;;;;2.67;1.75;;;16.40;99.90;;;;;;5064226;28;20218;-77
2023/10/21 01:34:51;;;;;;;2.67;1.60;;;16.20;99.90;;;;;;5064402;28;20288;-75
2023/10/21 01:37:18;;;;;;;2.60;1.95;;;16.10;99.90;;;;;;5063974;28;20222;-73
2023/10/21 01:39:45;;;;;;;3.75;1.92;;;15.90;99.90;;;;;;5064121;28;20694;-75
2023/10/21 01:42:13;;;;;;;4.70;1.80;;;15.80;99.90;;;;;;5063907;28;20210;-76
2023/10/21 01:44:40;;;;;;;4.38;1.77;;;15.70;99.90;;;;;;5062705;28;20673;-76
2023/10/21 01:47:07;;;;;;;2.65;1.80;;;15.60;99.90;;;;;;5062217;28;20193;-74
2023/10/21 01:49:34;;;;;;;2.42;1.42;;;15.60;99.90;;;;;;5062875;28;20198;-74
2023/10/21 01:52:01;;;;;;;2.67;1.67;;;15.50;99.90;;;;;;5063423;28;20198;-76
2023/10/21 01:54:28;;;;;;;1.42;1.33;;;15.50;99.90;;;;;;5063484;28;20206;-75
2023/10/21 01:56:55;;;;;;;2.55;1.42;;;15.50;99.90;;;;;;5057658;28;20267;-73
2023/10/21 01:59:23;;;;;;;1.50;1.40;;;15.50;99.90;;;;;;5062647;28;20260;-75
2023/10/21 02:01:50;;;;;;;1.55;1.35;;;15.50;99.90;;;;;;5060745;28;20202;-74
2023/10/21 02:04:17;;;;;;;1.50;1.40;;;15.50;99.90;;;;;;5062022;28;20285;-75
2023/10/21 02:06:44;;;;;;;2.47;1.40;;;15.50;99.90;;;;;;5061014;28;20205;-74
2023/10/21 02:09:11;;;;;;;1.25;1.20;;;15.50;99.90;;;;;;5062141;28;20221;-75
2023/10/21 02:11:38;;;;;;;4.40;1.38;;;15.50;99.90;;;;;;5064393;28;20210;-75
2023/10/21 02:14:06;;;;;;;2.72;1.30;;;15.50;99.90;;;;;;5059158;28;20271;-75
2023/10/21 02:16:34;;;;;;;1.40;1.30;;;15.50;99.90;;;;;;5058989;28;20206;-76
2023/10/21 02:19:01;;;;;;;1.08;1.08;;;15.50;99.90;;;;;;5060891;28;20218;-74
2023/10/21 02:21:28;;;;;;;1.20;1.10;;;15.50;99.90;;;;;;5062303;28;20248;-75
2023/10/21 02:23:55;;;;;;;1.50;1.40;;;15.50;99.90;;;;;;5064807;28;20636;-74
2023/10/21 02:26:21;;;;;;;2.35;1.60;;;15.50;99.90;;;;;;5063053;28;20259;-75
2023/10/21 02:28:48;;;;;;;1.10;1.10;;;15.40;99.90;;;;;;5060511;28;20219;-75
2023/10/21 02:31:15;;;;;;;1.88;1.40;;;15.40;99.90;;;;;;5061618;28;20202;-74
2023/10/21 02:33:44;;;;;;;1.58;1.33;;;15.40;99.90;;;;;;5061434;28;20803;-73
2023/10/21 02:36:10;;;;;;;1.40;1.30;;;15.40;99.90;;;;;;5060018;28;20206;-76
2023/10/21 02:38:37;;;;;;;2.65;1.73;;;15.40;99.90;;;;;;5063037;28;20279;-75
2023/10/21 02:41:05;;;;;;;1.77;1.30;;;15.30;99.90;;;;;;5061978;28;20198;-75
2023/10/21 02:43:33;;;;;;;1.40;1.30;;;15.30;99.90;;;;;;5059636;28;20282;-75
2023/10/21 02:46:08;;;;;;;1.20;1.10;;;15.30;99.90;;;;;;5062111;28;20286;-74
2023/10/21 02:48:35;;;;;;;1.77;1.40;;;15.20;99.90;;;;;;5062085;28;20222;-75
2023/10/21 02:51:11;;;;;;;1.40;1.30;;;15.20;99.90;;;;;;5061416;28;20826;-74
2023/10/21 02:53:38;;;;;;;1.50;1.17;;;15.20;99.90;;;;;;5058863;28;20633;-75
2023/10/21 02:56:06;;;;;;;1.70;1.60;;;15.20;99.90;;;;;;5062590;28;20618;-75
2023/10/21 02:58:34;;;;;;;1.52;1.35;;;15.20;99.90;;;;;;5063764;28;20249;-76
2023/10/21 03:01:04;;;;;;;1.52;1.42;;;15.20;99.90;;;;;;5059374;28;20743;-74
2023/10/21 03:03:31;;;;;;;1.35;1.25;;;15.20;99.90;;;;;;5061184;28;20203;-74
2023/10/21 03:05:58;;;;;;;1.65;1.30;;;15.20;99.90;;;;;;5064716;28;20244;-75
2023/10/21 03:08:27;;;;;;;3.13;1.33;;;15.20;99.90;;;;;;5066380;28;20226;-75
2023/10/21 03:10:54;;;;;;;1.23;1.10;;;15.20;99.90;;;;;;5065027;28;20591;-75
2023/10/21 03:13:21;;;;;;;1.77;1.33;;;15.20;99.90;;;;;;5064666;28;20259;-75
2023/10/21 03:15:48;;;;;;;1.23;1.10;;;15.20;99.90;;;;;;5067668;28;20251;-75
2023/10/21 03:18:15;;;;;;;1.15;1.05;;;15.20;99.90;;;;;;5069577;28;20287;-75
2023/10/21 03:20:42;;;;;;;1.77;1.20;;;15.20;99.90;;;;;;5065415;28;20198;-75
2023/10/21 03:23:10;;;;;;;2.15;1.25;;;15.30;99.90;;;;;;5065240;28;20247;-75
2023/10/21 03:25:38;;;;;;;1.40;1.30;;;15.30;99.90;;;;;;5065318;28;20207;-74
2023/10/21 03:28:05;;;;;;;1.38;1.27;;;15.40;99.90;;;;;;5063168;28;20218;-75
2023/10/21 03:30:32;;;;;;;0.93;0.93;;;15.40;99.90;;;;;;5064442;28;20204;-75
2023/10/21 03:32:59;;;;;;;1.30;1.20;;;15.40;99.90;;;;;;5063838;28;20221;-74
2023/10/21 03:35:26;;;;;;;2.58;1.20;;;15.40;99.90;;;;;;5066710;28;20203;-75
2023/10/21 03:37:53;;;;;;;1.02;1.02;;;15.30;99.90;;;;;;5063498;28;20222;-74
2023/10/21 03:40:20;;;;;;;1.65;1.30;;;15.30;99.90;;;;;;5065875;28;20614;-75
2023/10/21 03:42:48;;;;;;;1.20;1.20;;;15.30;99.90;;;;;;5066049;28;20259;-73
2023/10/21 03:45:15;;;;;;;2.30;1.35;;;15.20;99.90;;;;;;5066281;28;20232;-75
2023/10/21 03:47:42;;;;;;;1.27;1.17;;;15.30;99.90;;;;;;5066505;28;20218;-75
2023/10/21 03:50:10;;;;;;;1.20;1.15;;;15.20;99.90;;;;;;5067205;28;20202;-75
2023/10/21 03:52:37;;;;;;;2.58;1.20;;;15.30;99.90;;;;;;5066203;28;20715;-75
2023/10/21 03:55:04;;;;;;;1.73;1.60;;;15.20;99.90;;;;;;5064745;28;20206;-74
2023/10/21 03:57:31;;;;;;;1.10;1.10;;;15.20;99.90;;;;;;5064040;28;20210;-75
2023/10/21 04:00:04;;;;;;;2.88;1.80;;;15.10;99.90;;;;;;5066074;28;20202;-74
2023/10/21 04:02:31;;;;;;;2.40;2.20;;;15.20;99.90;;;;;;5063423;28;20256;-75
2023/10/21 04:04:58;;;;;;;2.40;2.20;;;15.10;99.90;;;;;;5067287;28;20202;-77
2023/10/21 04:07:25;;;;;;;2.33;2.13;;;15.10;99.90;;;;;;5066025;28;20218;-75
2023/10/21 04:09:52;;;;;;;1.98;1.77;;;15.10;99.90;;;;;;5067063;28;20206;-75
2023/10/21 04:12:19;;;;;;;1.63;1.40;;;15.00;99.90;;;;;;5064509;28;20820;-73
2023/10/21 04:14:46;;;;;;;1.70;1.60;;;15.00;99.90;;;;;;5065247;28;20316;-75
2023/10/21 04:17:14;;;;;;;1.42;1.33;;;15.00;99.90;;;;;;5061476;28;20226;-74
2023/10/21 04:19:41;;;;;;;2.30;1.50;;;15.00;99.90;;;;;;5064226;28;20661;-75
2023/10/21 04:22:09;;;;;;;1.50;1.40;;;15.00;99.90;;;;;;5064286;28;20190;-76
2023/10/21 04:24:36;;;;;;;2.03;1.45;;;15.00;99.90;;;;;;5065037;28;20256;-75
2023/10/21 04:27:03;;;;;;;3.25;1.80;;;14.80;99.90;;;;;;5066216;28;20198;-76
2023/10/21 04:29:32;;;;;;;1.95;1.42;;;14.80;99.90;;;;;;5061294;28;20198;-74
2023/10/21 04:31:59;;;;;;;1.58;1.48;;;14.70;99.90;;;;;;5063947;28;20198;-75
2023/10/21 04:34:28;;;;;;;2.03;1.70;;;14.60;99.90;;;;;;5061627;28;20311;-76
2023/10/21 04:36:55;;;;;;;2.22;1.45;;;14.60;99.90;;;;;;5062355;28;20198;-74
2023/10/21 04:39:22;;;;;;;1.20;1.20;;;14.60;99.90;;;;;;5062730;28;20210;-76
2023/10/21 04:41:49;;;;;;;2.65;1.58;;;14.50;99.90;;;;;;5061924;28;20202;-74
2023/10/21 04:44:20;;;;;;;2.83;1.45;;;14.40;99.90;;;;;;5062504;28;20202;-75
2023/10/21 04:46:47;;;;;;;3.22;1.25;;;14.40;99.90;;;;;;5064862;28;20668;-75
2023/10/21 04:49:14;;;;;;;1.88;1.65;;;14.40;99.90;;;;;;5065042;28;20313;-75
2023/10/21 04:51:43;;;;;;;1.30;1.30;;;14.40;99.90;;;;;;5065966;28;20208;-77
2023/10/21 04:54:10;;;;;;;1.50;1.40;;;14.40;99.90;;;;;;5064286;28;20982;-76
2023/10/21 04:56:37;;;;;;;2.28;1.60;;;14.40;99.90;;;;;;5064380;28;20194;-75
2023/10/21 04:59:06;;;;;;;1.77;1.20;;;14.40;99.90;;;;;;5064694;28;20271;-75
2023/10/21 05:01:33;;;;;;;1.73;1.33;;;14.30;99.90;;;;;;5062310;28;20194;-76
2023/10/21 05:04:00;;;;;;;1.50;1.40;;;14.30;99.90;;;;;;5064297;28;20286;-75
2023/10/21 05:06:27;;;;;;;1.60;1.50;;;14.30;99.90;;;;;;5065745;28;20206;-75
2023/10/21 05:08:56;;;;;;;1.60;1.50;;;14.30;99.90;;;;;;5065370;28;20760;-75
2023/10/21 05:11:22;;;;;;;1.60;1.50;;;14.20;99.90;;;;;;5064003;28;20610;-75
2023/10/21 05:13:49;;;;;;;1.42;1.33;;;14.20;99.90;;;;;;5065323;28;20217;-76
2023/10/21 05:16:16;;;;;;;2.33;1.50;;;14.20;99.90;;;;;;5064213;28;20218;-75
2023/10/21 05:18:43;;;;;;;2.45;1.98;;;14.10;99.90;;;;;;5065150;28;20219;-76
2023/10/21 05:21:10;;;;;;;2.08;1.75;;;14.00;99.90;;;;;;5066604;28;20210;-77
2023/10/21 05:23:38;;;;;;;1.60;1.50;;;14.00;99.90;;;;;;5065570;28;20230;-75
2023/10/21 05:26:06;;;;;;;1.88;1.33;;;14.00;99.90;;;;;;5063454;28;20202;-76
2023/10/21 05:28:34;;;;;;;1.70;1.60;;;14.00;99.90;;;;;;5065130;28;20275;-77
2023/10/21 05:31:03;;;;;;;2.03;1.55;;;14.00;99.90;;;;;;5062546;28;20228;-75
2023/10/21 05:33:30;;;;;;;1.70;1.52;;;14.00;99.90;;;;;;5064208;28;20214;-76
2023/10/21 05:35:58;;;;;;;1.58;1.48;;;14.00;99.90;;;;;;5065433;28;20198;-76
2023/10/21 05:38:25;;;;;;;1.90;1.80;;;13.90;99.90;;;;;;5063223;28;20225;-76
2023/10/21 05:40:52;;;;;;;2.47;1.80;;;13.90;99.90;;;;;;5063086;28;20194;-75
2023/10/21 05:43:20;;;;;;;2.08;1.50;;;13.90;99.90;;;;;;5064744;28;20209;-77
2023/10/21 05:45:47;;;;;;;1.70;1.60;;;13.90;99.90;;;;;;5064533;28;20195;-76
2023/10/21 05:48:14;;;;;;;2.58;1.65;;;13.90;99.90;;;;;;5062969;28;20320;-76
2023/10/21 05:50:41;;;;;;;2.55;1.83;;;14.00;99.90;;;;;;5063516;28;20283;-75
2023/10/21 05:53:08;;;;;;;2.38;1.92;;;14.00;99.90;;;;;;5064489;28;20543;-75
2023/10/21 05:55:41;;;;;;;2.53;2.08;;;14.10;99.90;;;;;;5066147;28;20919;-76
2023/10/21 05:58:08;;;;;;;2.28;2.08;;;14.10;99.90;;;;;;5064422;28;20338;-76
2023/10/21 06:00:36;;;;;;;2.50;2.10;;;14.10;99.90;;;;;;5063554;28;20252;-75
2023/10/21 06:03:05;;;;;;;2.22;1.88;;;14.20;99.90;;;;;;5059293;28;20199;-75
2023/10/21 06:05:32;;;;;;;2.28;1.95;;;14.20;99.90;;;;;;5063008;28;20255;-76
2023/10/21 06:07:59;;;;;;;2.30;2.10;;;14.20;99.90;;;;;;5062255;28;20921;-75
2023/10/21 06:10:26;;;;;;;2.17;1.83;;;14.20;99.90;;;;;;5063618;28;20198;-74
2023/10/21 06:12:53;;;;;;;1.98;1.80;;;14.20;99.90;;;;;;5063167;28;20263;-75
2023/10/21 06:15:20;;;;;;;2.03;1.83;;;14.20;99.90;;;;;;5062708;28;20275;-76
2023/10/21 06:17:48;;;;;;;1.65;1.55;;;14.20;99.90;;;;;;5064365;28;20218;-75
2023/10/21 06:20:15;;;;;;;1.83;1.70;;;14.20;99.90;;;;;;5063220;28;20210;-75
2023/10/21 06:22:42;;;;;;;2.10;1.90;;;14.20;99.90;;;;;;5064133;28;20208;-75
2023/10/21 06:25:10;;;;;;;2.08;1.60;;;14.20;99.90;;;;;;5064629;28;20622;-76
2023/10/21 06:27:37;;;;;;;1.70;1.60;;;14.30;99.90;;;;;;5063363;28;20625;-75
2023/10/21 06:30:05;;;;;;;1.85;1.73;;;14.30;99.90;;;;;;5065075;28;20290;-75
2023/10/21 06:32:32;;;;;;;1.50;1.40;;;14.30;99.90;;;;;;5064274;28;20224;-75
2023/10/21 06:35:00;;;;;;;1.70;1.60;;;14.30;99.90;;;;;;5064659;28;20749;-75
2023/10/21 06:37:27;;;;;;;2.03;1.52;;;14.40;99.90;;;;;;5062823;28;20704;-77
2023/10/21 06:39:54;;;;;;;1.60;1.50;;;14.40;99.90;;;;;;5066886;28;20206;-75
2023/10/21 06:42:21;;;;;;;2.38;1.40;;;14.40;99.90;;;;;;5065231;28;20210;-75
2023/10/21 06:44:48;;;;;;;1.55;1.45;;;14.50;99.90;;;;;;5068761;28;20268;-77
2023/10/21 06:47:15;;;;;;;2.78;1.70;;;14.40;99.90;;;;;;5069688;28;20222;-75
2023/10/21 06:49:43;;;;;;;2.67;1.70;;;14.40;99.90;;;;;;5069439;28;20226;-74
2023/10/21 06:52:12;;;;;;;3.92;1.88;;;14.40;99.90;;;;;;5067608;28;20209;-75
2023/10/21 06:54:39;;;;;;;2.35;1.75;;;14.40;99.90;;;;;;5066866;28;20211;-76
2023/10/21 06:57:06;;;;;;;2.85;2.05;;;14.50;99.90;;;;;;5067979;28;20281;-77
2023/10/21 06:59:33;;;;;;;2.03;1.92;;;14.50;99.90;;;;;;5065933;28;20252;-75
2023/10/21 07:02:00;;;;;;;2.25;1.90;;;14.60;99.90;;;;;;5062709;28;20657;-74
2023/10/21 07:04:27;;;;;;;2.30;1.98;;;14.70;99.90;;;;;;5064045;28;20273;-75
2023/10/21 07:06:54;;;;;;;2.00;1.80;;;14.70;99.90;;;;;;5066215;28;20202;-75
2023/10/21 07:09:23;;;;;;;1.70;1.60;;;14.70;99.90;;;;;;5066553;28;20248;-74
2023/10/21 07:11:50;;;;;;;2.25;1.60;;;14.80;99.90;;;;;;5065875;28;20207;-75
2023/10/21 07:14:16;;;;;;;1.63;1.45;;;14.80;99.90;;;;;;5063468;28;20218;-76
2023/10/21 07:16:43;;;;;;;1.92;1.40;;;14.90;99.90;;;;;;5065763;28;20198;-76
2023/10/21 07:19:12;;;;;;;1.88;1.52;;;14.90;99.90;;;;;;5056631;28;20311;-75
2023/10/21 07:21:39;;;;;;;1.88;1.77;;;15.00;99.90;;;;;;5061228;28;20210;-76
2023/10/21 07:24:07;;;;;;;1.88;1.63;;;15.10;99.90;;;;;;5066935;28;20209;-75
2023/10/21 07:26:35;;;;;;;1.85;1.65;;;15.10;99.90;;;;;;5065539;28;20801;-75
2023/10/21 07:29:02;;;;;;;1.80;1.70;;;15.10;99.90;;;;;;5062501;28;20230;-74
2023/10/21 07:31:29;;;;;;;3.42;2.10;;;15.20;99.90;;;;;;5064082;28;20202;-75
2023/10/21 07:33:56;;;;;;;1.70;1.60;;;15.20;99.90;;;;;;5062209;28;20206;-75
2023/10/21 07:36:23;;;;;;;2.88;1.80;;;15.30;99.90;;;;;;5065750;28;20210;-75
2023/10/21 07:38:50;;;;;;;2.38;1.95;;;15.30;99.90;;;;;;5060626;28;20226;-75
2023/10/21 07:41:17;;;;;;;2.38;1.90;;;15.40;99.90;;;;;;5065233;28;20206;-76
2023/10/21 07:43:46;;;;;;;1.60;1.50;;;15.40;99.90;;;;;;5067310;28;20233;-75
2023/10/21 07:46:15;;;;;;;1.98;1.80;;;15.50;99.90;;;;;;5061664;28;20205;-75
2023/10/21 07:48:42;;;;;;;1.70;1.60;;;15.50;99.90;;;;;;5059926;28;20313;-72
2023/10/21 07:51:09;;;;;;;1.70;1.60;;;15.50;99.90;;;;;;5062429;28;20198;-73
2023/10/21 07:53:36;;;;;;;2.03;1.52;;;15.50;99.90;;;;;;5059582;28;20210;-76
2023/10/21 07:56:03;;;;;;;1.67;1.52;;;15.60;99.90;;;;;;5057006;28;20755;-73
2023/10/21 07:58:30;;;;;;;1.95;1.75;;;15.70;99.90;;;;;;5060834;28;20218;-74
2023/10/21 08:00:58;;;;;;;1.90;1.40;;;15.80;99.90;;;;;;5059370;28;20255;-73
2023/10/21 08:03:25;;;;;;;1.50;1.40;;;15.90;99.90;;;;;;5058450;28;20276;-74
2023/10/21 08:05:52;;;;;;;3.22;1.70;;;15.90;99.90;;;;;;5057004;28;20893;-74
2023/10/21 08:08:19;;;;;;;2.70;1.95;;;15.90;99.90;;;;;;5057790;28;20272;-75
2023/10/21 08:10:46;;;;;;;2.45;1.67;;;15.90;99.90;;;;;;5056969;28;20623;-75
2023/10/21 08:13:13;;;;;;;2.78;2.10;;;15.80;99.90;;;;;;5055255;28;20689;-73
2023/10/21 08:15:40;;;;;;;1.85;1.70;;;15.80;99.90;;;;;;5058427;28;20214;-74
2023/10/21 08:18:09;;;;;;;2.17;1.98;;;15.80;99.90;;;;;;5057532;28;20899;-74
2023/10/21 08:20:37;;;;;;;3.35;2.05;;;15.80;99.90;;;;;;5058243;28;20198;-73
2023/10/21 08:23:04;;;;;;;2.28;1.88;;;15.80;99.90;;;;;;5058233;28;20198;-74
2023/10/21 08:25:31;;;;;;;2.92;2.13;;;15.90;99.90;;;;;;5059180;28;20726;-75
2023/10/21 08:27:58;;;;;;;2.10;1.85;;;16.10;99.90;;;;;;5051048;28;20720;-76
2023/10/21 08:30:25;;;;;;;2.35;2.08;;;16.30;99.90;;;;;;5056039;28;20883;-74
2023/10/21 08:32:52;;;;;;;2.10;1.70;;;16.60;99.90;;;;;;5062371;28;20252;-75
2023/10/21 08:35:20;;;;;;;3.20;2.08;;;17.40;99.90;;;;;;5063172;28;20280;-73
2023/10/21 08:37:47;;;;;;;2.08;1.88;;;18.10;99.90;;;;;;5061259;28;20270;-75
2023/10/21 08:40:14;;;;;;;2.00;1.73;;;18.50;99.90;;;;;;5064808;28;20209;-76
2023/10/21 08:42:42;;;;;;;3.22;1.80;;;18.30;99.90;;;;;;5064587;28;20290;-76
2023/10/21 08:45:10;;;;;;;3.80;2.25;;;18.50;99.90;;;;;;5063876;28;20694;-76
2023/10/21 08:47:42;;;;;;;3.10;1.80;;;19.40;99.90;;;;;;5060544;28;20221;-76
2023/10/21 08:50:10;;;;;;;1.92;1.70;;;20.00;99.90;;;;;;5061084;28;20198;-75
2023/10/21 08:52:40;;;;;;;4.05;1.90;;;19.80;99.90;;;;;;5064599;28;20261;-76
2023/10/21 08:55:08;;;;;;;3.58;1.83;;;19.20;99.90;;;;;;5063390;28;20229;-76
2023/10/21 08:57:36;;;;;;;3.90;1.90;;;18.70;99.90;;;;;;5064284;28;20301;-76
2023/10/21 09:00:04;;;;;;;2.28;1.70;;;18.40;99.90;;;;;;5063778;28;20202;-76
2023/10/21 09:02:31;;;;;;;1.73;1.40;;;18.30;99.90;;;;;;5063158;28;20692;-76
2023/10/21 09:04:59;;;;;;;1.58;1.40;;;18.30;99.90;;;;;;5063976;28;20202;-76
2023/10/21 09:07:43;;;;;;;1.75;1.38;;;18.20;99.90;;;;;;5062905;28;20226;-76
2023/10/21 09:10:12;;;;;;;2.60;1.60;;;18.20;99.90;;;;;;5063712;28;20198;-74
2023/10/21 09:12:39;;;;;;;3.00;1.65;;;18.20;99.90;;;;;;5063402;28;20628;-75
2023/10/21 09:15:07;;;;;;;3.30;1.60;;;18.50;99.90;;;;;;5059014;28;20688;-74
2023/10/21 09:17:36;;;;;;;2.35;1.60;;;18.60;99.90;;;;;;5052302;28;20210;-74
2023/10/21 09:20:07;;;;;;;2.00;1.77;;;18.60;99.90;;;;;;5061578;28;20858;-75
2023/10/21 09:22:35;;;;;;;2.22;1.33;;;18.50;99.90;;;;;;5063087;28;20206;-77
2023/10/21 09:25:18;;;;;;;2.80;1.88;;;18.40;99.90;;;;;;5061348;28;20206;-76
2023/10/21 09:27:45;;;;;;;1.50;1.40;;;18.20;99.90;;;;;;5063281;28;20221;-75
2023/10/21 09:30:17;;;;;;;2.95;1.45;;;18.10;99.90;;;;;;5061354;28;20206;-76
2023/10/21 09:32:46;;;;;;;2.67;1.63;;;17.90;99.90;;;;;;5061950;28;20262;-75
2023/10/21 09:35:23;;;;;;;2.17;1.58;;;17.70;99.90;;;;;;5063996;28;20222;-76
2023/10/21 09:37:51;;;;;;;2.95;2.13;;;17.50;99.90;;;;;;5057418;28;21723;-75
2023/10/21 09:40:20;;;;;;;3.08;1.73;;;17.30;99.90;;;;;;5061808;28;20210;-76
2023/10/21 09:42:50;;;;;;;1.60;1.50;;;17.20;99.90;;;;;;5059703;28;20210;-74
2023/10/21 09:45:18;;;;;;;1.77;1.67;;;17.10;99.90;;;;;;5062151;28;20306;-75
2023/10/21 09:47:46;;;;;;;1.63;1.52;;;17.10;99.90;;;;;;5058166;28;20257;-75
2023/10/21 09:50:14;;;;;;;1.63;1.52;;;17.00;99.90;;;;;;5058052;28;20244;-73
2023/10/21 09:52:55;;;;;;;1.83;1.48;;;17.00;99.90;;;;;;5058056;28;20289;-76
2023/10/21 09:55:25;;;;;;;2.15;1.60;;;16.90;99.90;;;;;;5056773;28;20822;-76
2023/10/21 09:57:55;;;;;;;2.13;1.67;;;16.90;99.90;;;;;;5056419;28;20233;-75
2023/10/21 10:00:24;;;;;;;1.73;1.30;;;16.90;99.90;;;;;;5064012;28;20202;-75
2023/10/21 10:02:55;;;;;;;2.03;1.50;;;16.80;99.90;;;;;;5054858;28;20217;-76
2023/10/21 10:05:23;;;;;;;2.42;1.55;;;16.90;99.90;;;;;;5057566;28;20902;-75
2023/10/21 10:07:50;;;;;;;1.63;1.52;;;16.90;99.90;;;;;;5059108;28;20226;-75
2023/10/21 10:10:21;;;;;;;2.05;1.73;;;17.00;99.90;;;;;;5063620;28;20267;-74
2023/10/21 10:12:53;;;;;;;1.73;1.63;;;17.00;99.90;;;;;;5055695;28;20206;-75
2023/10/21 10:15:31;;;;;;;2.42;1.92;;;16.80;99.90;;;;;;5059731;28;20681;-76
2023/10/21 10:17:58;;;;;;;3.55;2.20;;;16.80;99.90;;;;;;5061623;28;20219;-76
2023/10/21 10:20:27;;;;;;;1.95;1.75;;;16.90;99.90;;;;;;5061700;28;20198;-75
2023/10/21 10:22:59;;;;;;;2.05;1.88;;;16.90;99.90;;;;;;5061896;28;20638;-75
2023/10/21 10:25:30;;;;;;;3.03;2.03;;;17.00;99.90;;;;;;5060737;28;20824;-77
2023/10/21 10:28:00;;;;;;;2.63;2.10;;;17.10;99.90;;;;;;5061146;28;20217;-77
2023/10/21 10:30:31;;;;;;;3.90;1.88;;;17.10;99.90;;;;;;5059890;28;20209;-76
2023/10/21 10:33:06;;;;;;;2.45;1.90;;;17.10;99.90;;;;;;5065433;28;20654;-76
2023/10/21 10:35:34;;;;;;;1.85;1.75;;;16.90;99.90;;;;;;5063506;28;20210;-76
2023/10/21 10:38:03;;;;;;;1.83;1.73;;;16.80;99.90;;;;;;5062548;28;20209;-75
2023/10/21 10:40:34;;;;;;;3.42;2.03;;;16.70;99.90;;;;;;5065425;28;20565;-76
2023/10/21 10:43:04;;;;;;;2.50;1.95;;;16.50;99.90;;;;;;5064475;28;20248;-76
2023/10/21 10:45:34;;;;;;;2.45;2.22;;;16.30;99.90;;;;;;5064156;28;20241;-77
2023/10/21 10:48:02;;;;;;;2.45;2.22;;;16.20;99.90;;;;;;5063488;28;20248;-76
2023/10/21 10:50:30;;;;;;;2.33;2.10;;;16.10;99.90;;;;;;5068325;28;20206;-75
2023/10/21 10:52:59;;;;;;;2.08;1.80;;;16.10;99.90;;;;;;5064442;28;20724;-76
2023/10/21 10:55:26;;;;;;;2.55;2.22;;;16.10;99.90;;;;;;5065470;28;20216;-76
2023/10/21 10:57:54;;;;;;;2.30;2.15;;;16.00;99.90;;;;;;5061879;28;20296;-75
2023/10/21 11:00:22;;;;;;;3.58;2.67;;;15.90;99.90;;;;;;5064907;28;20285;-75
2023/10/21 11:02:50;;;;;;;2.33;2.10;;;15.70;99.90;;;;;;5063851;28;20205;-75
2023/10/21 11:05:20;;;;;;;2.92;2.10;;;15.60;99.90;;;;;;5062407;28;20690;-75
2023/10/21 11:07:47;;;;;;;2.53;2.33;;;15.50;99.90;;;;;;5063420;28;20226;-74
2023/10/21 11:10:19;;;;;;;2.15;1.95;;;15.60;99.90;;;;;;5061601;28;20260;-74
2023/10/21 11:12:48;;;;;;;1.90;1.70;;;15.70;99.90;;;;;;5061566;28;20825;-75
2023/10/21 11:15:16;;;;;;;3.22;2.10;;;15.80;99.90;;;;;;5062571;28;20213;-75
2023/10/21 11:17:47;;;;;;;2.35;2.15;;;15.90;99.90;;;;;;5063106;28;20255;-75
2023/10/21 11:20:14;;;;;;;2.55;2.35;;;15.90;99.90;;;;;;5059062;28;20333;-75
2023/10/21 11:22:42;;;;;;;3.80;2.22;;;15.90;99.90;;;;;;5057859;28;20242;-74
2023/10/21 11:25:09;;;;;;;2.50;2.30;;;15.90;99.90;;;;;;5060193;28;20290;-76
2023/10/21 11:27:41;;;;;;;2.53;2.33;;;15.90;99.90;;;;;;5056807;28;20214;-76
2023/10/21 11:30:09;;;;;;;3.75;3.10;;;16.10;99.90;;;;;;5062977;28;20194;-74
2023/10/21 11:32:37;;;;;;;3.00;2.80;;;16.20;99.90;;;;;;5061040;28;20265;-76
2023/10/21 11:35:09;;;;;;;2.83;2.40;;;16.30;99.90;;;;;;5063033;28;20756;-75
2023/10/21 11:37:37;;;;;;;3.28;2.75;;;16.50;99.90;;;;;;5061729;28;20320;-75
2023/10/21 11:40:05;;;;;;;2.63;2.10;;;17.00;99.90;;;;;;5064277;28;20199;-73
2023/10/21 11:42:33;;;;;;;2.58;1.98;;;17.30;99.90;;;;;;5064090;28;20247;-75
2023/10/21 11:45:03;;;;;;;2.35;2.15;;;17.40;99.90;;;;;;5065485;28;20286;-76
2023/10/21 11:47:31;;;;;;;2.05;1.80;;;17.50;99.90;;;;;;5063935;28;20347;-75
2023/10/21 11:49:59;;;;;;;3.05;2.00;;;17.50;99.90;;;;;;5061505;28;20314;-75
2023/10/21 11:52:28;;;;;;;3.13;2.30;;;17.40;99.90;;;;;;5063199;28;20599;-75
2023/10/21 11:58:19;;;;;;;2.92;2.08;;;17.40;99.90;;;;;;5057084;28;21189;-75
2023/10/21 12:17:09;;;;;;;2.80;2.17;;;18.80;99.90;;;;;;5063313;28;20220;-73
2023/10/21 12:19:50;;;;;;;3.05;1.83;;;19.20;99.90;;;;;;5056872;28;20194;-73
2023/10/21 12:28:32;;;;;;;2.55;1.90;;;19.60;99.90;;;;;;5064041;28;20246;-73
2023/10/21 12:34:20;;;;;;;2.47;1.90;;;20.10;99.90;;;;;;5062273;28;20690;-75
2023/10/21 12:37:15;;;;;;;5.65;2.88;;;20.20;99.90;;;;;;5061601;28;20686;-75
2023/10/21 12:39:47;;;;;;;2.70;2.22;;;20.00;99.90;;;;;;5064217;28;20212;-74
2023/10/21 12:42:25;;;;;;;3.15;2.20;;;19.70;99.90;;;;;;5061806;28;20202;-74
2023/10/21 12:44:54;;;;;;;2.28;2.00;;;19.40;99.90;;;;;;5064875;28;20263;-75
2023/10/21 12:47:20;;;;;;;2.55;2.00;;;19.50;99.90;;;;;;5062187;28;20864;-75
2023/10/21 12:49:50;;;;;;;1.98;1.80;;;19.50;99.90;;;;;;5063208;28;20194;-75
2023/10/21 12:52:17;;;;;;;2.28;2.08;;;19.50;99.90;;;;;;5058255;28;20190;-75
2023/10/21 12:54:44;;;;;;;2.10;1.90;;;19.70;99.90;;;;;;5059795;28;20190;-75
2023/10/21 12:57:12;;;;;;;3.65;2.15;;;19.60;99.90;;;;;;5060776;28;20253;-74
2023/10/21 12:59:40;;;;;;;2.15;1.95;;;19.40;99.90;;;;;;5056409;28;20941;-74
2023/10/21 13:02:09;;;;;;;2.28;1.80;;;19.30;99.90;;;;;;5060343;28;20202;-74
2023/10/21 13:04:37;;;;;;;2.75;1.80;;;19.00;99.90;;;;;;5063219;28;20198;-75
2023/10/21 13:07:06;;;;;;;2.10;1.90;;;18.80;99.90;;;;;;5063229;28;20194;-72
2023/10/21 13:09:33;;;;;;;2.67;1.50;;;18.70;99.90;;;;;;5055117;28;21121;-75
2023/10/21 13:12:09;;;;;;;1.75;1.63;;;18.70;99.90;;;;;;5059514;28;20303;-75
2023/10/21 13:14:38;;;;;;;1.50;1.40;;;18.80;99.90;;;;;;5057921;28;20204;-75
2023/10/21 13:17:08;;;;;;;2.05;1.60;;;18.90;99.90;;;;;;5058578;28;20209;-74
2023/10/21 13:19:36;;;;;;;2.78;2.20;;;18.90;99.90;;;;;;5060178;28;20576;-74
2023/10/21 13:22:05;;;;;;;2.00;1.80;;;18.80;99.90;;;;;;5058658;28;20206;-75